Time;durP1;ratioP1;P1;durP2;ratioP2;P2;SDS_P1;SDS_P2;PMS_P1;PMS_P2;Temp;Humidity;BMP_temperature;BMP_pressure;BME280_temperature;BME280_humidity;BME280_pressure;Samples;Min_cycle;Max_cycle;Signal;HPM_P1;HPM_P2
2021/04/29 00:02:38;;;;;;;14.43;9.05;;;;;;;17.77;70.32;101027.09;144992;694;6003;-87
2021/04/29 00:05:11;;;;;;;15.27;9.50;;;;;;;17.75;69.84;101027.09;144992;566;6002;-88
2021/04/29 00:07:43;;;;;;;15.90;10.07;;;;;;;17.91;69.49;101029.78;144992;589;6002;-88
2021/04/29 00:10:16;;;;;;;14.10;9.48;;;;;;;17.92;68.25;101024.53;144992;599;6003;-83
2021/04/29 00:12:43;;;;;;;14.77;9.32;;;;;;;17.85;68.74;101024.47;144992;571;6002;-84
2021/04/29 00:15:13;;;;;;;17.65;9.95;;;;;;;17.96;69.47;101025.47;144992;563;6002;-85
2021/04/29 00:17:41;;;;;;;16.42;9.30;;;;;;;18.03;68.99;101016.72;144991;647;6002;-86
2021/04/29 00:20:13;;;;;;;13.62;9.45;;;;;;;17.99;68.54;101025.47;144992;585;6002;-85
2021/04/29 00:22:46;;;;;;;14.23;9.13;;;;;;;17.89;68.89;101023.66;144992;660;6002;-84
2021/04/29 00:25:23;;;;;;;17.27;9.88;;;;;;;18.02;68.87;101035.09;144992;741;6002;-83
2021/04/29 00:28:00;;;;;;;14.63;9.40;;;;;;;17.87;68.50;101031.50;144992;572;6002;-86
2021/04/29 00:30:40;;;;;;;14.70;9.27;;;;;;;18.04;68.69;101035.97;144992;565;6002;-84
2021/04/29 00:33:17;;;;;;;13.88;9.48;;;;;;;18.15;67.73;101025.50;144992;641;6002;-84
2021/04/29 00:36:00;;;;;;;15.13;9.57;;;;;;;18.27;67.57;101038.69;144992;575;6002;-85
2021/04/29 00:38:36;;;;;;;16.05;9.35;;;;;;;18.35;67.61;101036.09;144992;590;6002;-85
2021/04/29 00:41:19;;;;;;;16.00;9.60;;;;;;;18.42;67.35;101038.75;144992;637;6002;-85
2021/04/29 00:46:23;;;;;;;14.10;9.63;;;;;;;18.52;66.31;101041.38;144992;637;6002;-85
2021/04/29 00:49:00;;;;;;;14.23;9.35;;;;;;;18.58;66.07;101038.75;144992;580;6002;-82
2021/04/29 00:51:30;;;;;;;15.15;9.65;;;;;;;18.59;66.12;101043.16;144992;682;6002;-87
2021/04/29 00:54:01;;;;;;;13.73;9.60;;;;;;;18.61;66.48;101044.94;144992;586;6002;-87
2021/04/29 00:56:45;;;;;;;15.27;10.00;;;;;;;18.59;65.82;101036.13;144992;593;6002;-90
2021/04/29 00:59:16;;;;;;;14.57;10.43;;;;;;;18.61;66.07;101038.78;144992;595;6002;-87
2021/04/29 01:01:54;;;;;;;12.45;9.85;;;;;;;18.60;65.64;101037.03;144992;578;6002;-83
2021/04/29 01:04:34;;;;;;;13.82;10.38;;;;;;;18.62;65.84;101041.41;144992;576;6002;-87
2021/04/29 01:07:13;;;;;;;16.02;10.00;;;;;;;18.59;65.83;101046.66;144992;651;6002;-84
2021/04/29 01:09:53;;;;;;;16.77;10.52;;;;;;;18.59;66.21;101045.78;144992;570;6003;-87
2021/04/29 01:12:36;;;;;;;17.05;10.48;;;;;;;18.60;65.84;101050.19;144992;601;6002;-84
2021/04/29 01:15:30;;;;;;;15.75;9.85;;;;;;;18.59;65.67;101053.66;144992;633;6002;-85
2021/04/29 01:20:48;;;;;;;16.62;10.48;;;;;;;18.62;66.03;101053.69;144992;690;6002;-85
2021/04/29 01:23:51;;;;;;;18.08;11.05;;;;;;;18.60;65.96;101051.06;144992;563;6002;-86
2021/04/29 01:26:50;;;;;;;19.35;11.00;;;;;;;18.58;65.56;101051.91;144992;661;6004;-85
2021/04/29 01:29:25;;;;;;;18.98;10.85;;;;;;;18.58;65.89;101058.06;144992;579;6002;-85
2021/04/29 01:31:59;;;;;;;14.07;10.55;;;;;;;18.54;65.95;101053.66;144992;623;6002;-86
2021/04/29 01:34:35;;;;;;;17.05;10.45;;;;;;;18.55;65.82;101058.06;144992;570;6002;-84
2021/04/29 01:37:08;;;;;;;16.65;10.80;;;;;;;18.54;65.85;101058.06;144992;665;6002;-84
2021/04/29 01:39:42;;;;;;;16.60;11.23;;;;;;;18.54;65.99;101064.19;144992;579;6002;-84
2021/04/29 01:42:29;;;;;;;14.68;10.27;;;;;;;18.51;65.47;101064.16;144992;656;6002;-87
2021/04/29 01:45:19;;;;;;;14.40;9.43;;;;;;;18.43;65.86;101063.28;144992;593;6002;-85
2021/04/29 01:47:48;;;;;;;15.48;10.32;;;;;;;18.37;65.66;101058.00;144992;596;6002;-85
2021/04/29 01:50:15;;;;;;;17.20;10.30;;;;;;;18.27;66.26;101064.97;144992;579;6002;-86
2021/04/29 01:52:43;;;;;;;17.90;10.13;;;;;;;18.24;66.18;101062.34;144992;618;6002;-85
2021/04/29 01:55:18;;;;;;;14.35;10.07;;;;;;;18.25;66.02;101061.47;144992;586;6002;-84
2021/04/29 01:57:47;;;;;;;15.18;9.88;;;;;;;18.24;65.49;101060.56;144992;606;6002;-85
2021/04/29 02:00:18;;;;;;;14.32;10.02;;;;;;;18.21;66.22;101063.19;144992;577;6002;-86
2021/04/29 02:02:46;;;;;;;15.50;9.60;;;;;;;18.18;66.16;101065.81;144992;663;6002;-85
2021/04/29 02:05:19;;;;;;;16.80;9.75;;;;;;;18.13;65.60;101065.81;144992;598;6002;-86
2021/04/29 02:07:46;;;;;;;18.00;10.30;;;;;;;18.07;65.95;101068.41;144992;578;6002;-86
2021/04/29 02:10:17;;;;;;;15.88;10.27;;;;;;;17.94;66.01;101067.47;144992;714;6002;-86
2021/04/29 02:12:54;;;;;;;16.05;9.68;;;;;;;17.87;66.46;101075.28;144992;590;6002;-87
2021/04/29 02:15:29;;;;;;;17.62;9.57;;;;;;;17.77;66.68;101069.97;144992;645;6002;-86
2021/04/29 02:18:20;;;;;;;18.17;9.85;;;;;;;17.75;66.79;101062.94;144992;606;6002;-86
2021/04/29 02:20:50;;;;;;;13.45;9.68;;;;;;;17.74;66.78;101067.31;144992;565;6002;-87
2021/04/29 02:23:19;;;;;;;15.07;9.45;;;;;;;17.74;66.59;101071.72;144992;647;6002;-86
2021/04/29 02:25:52;;;;;;;17.83;10.23;;;;;;;17.76;65.94;101069.97;144992;576;6002;-87
2021/04/29 02:28:21;;;;;;;15.45;10.10;;;;;;;17.77;66.36;101075.22;144992;574;6002;-87
2021/04/29 02:30:50;;;;;;;18.60;9.98;;;;;;;17.77;66.33;101080.47;144992;571;6002;-87
2021/04/29 02:33:20;;;;;;;16.05;10.10;;;;;;;17.74;65.78;101077.81;144992;577;6002;-87
2021/04/29 02:35:49;;;;;;;17.25;9.82;;;;;;;17.69;66.23;101087.44;144991;614;6002;-87
2021/04/29 02:38:19;;;;;;;17.77;9.82;;;;;;;17.63;66.02;101082.13;144992;571;6002;-87
2021/04/29 02:41:00;;;;;;;17.30;9.85;;;;;;;17.66;66.77;101089.16;144992;638;6002;-87
2021/04/29 02:44:02;;;;;;;14.93;9.63;;;;;;;17.60;66.32;101084.75;144992;588;6002;-80
2021/04/29 02:46:39;;;;;;;17.05;9.55;;;;;;;17.68;66.46;101090.03;144992;593;6011;-88
2021/04/29 02:49:16;;;;;;;18.15;9.93;;;;;;;17.76;66.46;101086.59;144992;576;6013;-87
2021/04/29 02:51:44;;;;;;;14.65;9.80;;;;;;;17.80;66.36;101090.13;144992;594;6004;-85
2021/04/29 02:54:11;;;;;;;13.80;10.25;;;;;;;17.79;66.06;101085.72;144992;572;6005;-87
2021/04/29 02:56:44;;;;;;;15.98;9.88;;;;;;;17.80;65.83;101089.22;144992;574;6004;-87
2021/04/29 02:59:12;;;;;;;17.62;9.57;;;;;;;17.80;66.15;101092.75;144992;589;6004;-86
2021/04/29 03:01:41;;;;;;;16.85;10.25;;;;;;;17.74;65.54;101085.69;144992;633;6005;-85
2021/04/29 03:04:08;;;;;;;14.10;9.77;;;;;;;17.65;66.28;101090.87;144992;585;6004;-85
2021/04/29 03:06:36;;;;;;;20.23;10.20;;;;;;;17.63;66.21;101095.25;144991;609;6000;-85
2021/04/29 03:09:05;;;;;;;15.45;9.80;;;;;;;17.61;65.78;101091.75;144992;570;6003;-87
2021/04/29 03:11:34;;;;;;;13.82;9.48;;;;;;;17.57;66.24;101101.34;144992;571;6002;-86
2021/04/29 03:14:01;;;;;;;15.27;9.90;;;;;;;17.55;65.50;101097.84;144992;583;6002;-85
2021/04/29 03:16:27;;;;;;;14.38;9.65;;;;;;;17.53;66.29;101098.66;144992;590;6003;-84
2021/04/29 03:18:54;;;;;;;15.60;10.48;;;;;;;17.51;65.57;101100.41;144992;648;6002;-85
2021/04/29 03:21:20;;;;;;;17.58;10.70;;;;;;;17.49;65.68;101103.03;144992;591;6002;-85
2021/04/29 03:23:47;;;;;;;17.80;10.55;;;;;;;17.48;65.89;101095.16;144992;643;6002;-86
2021/04/29 03:26:13;;;;;;;16.08;10.10;;;;;;;17.48;66.23;101100.41;144992;598;6002;-86
2021/04/29 03:28:40;;;;;;;17.45;11.32;;;;;;;17.43;65.96;101100.34;144992;576;6002;-85
2021/04/29 03:31:06;;;;;;;17.12;10.38;;;;;;;17.35;66.39;101099.41;144992;600;6002;-85
2021/04/29 03:33:33;;;;;;;18.48;10.70;;;;;;;17.34;65.83;101103.81;144992;571;6002;-85
2021/04/29 03:35:59;;;;;;;16.27;10.25;;;;;;;17.32;65.94;101100.28;144993;593;6002;-86
2021/04/29 03:38:26;;;;;;;19.58;10.70;;;;;;;17.25;66.62;101098.47;144993;565;6002;-85
2021/04/29 03:40:53;;;;;;;16.15;10.68;;;;;;;17.22;66.59;101101.06;144993;566;6002;-85
2021/04/29 03:43:19;;;;;;;22.58;10.50;;;;;;;17.20;66.80;101100.19;144993;614;6002;-84
2021/04/29 03:45:46;;;;;;;18.50;10.10;;;;;;;17.17;66.50;101108.03;144993;563;6002;-85
2021/04/29 03:48:13;;;;;;;20.00;10.38;;;;;;;17.14;67.02;101103.62;144993;576;6002;-86
2021/04/29 03:50:40;;;;;;;19.10;10.38;;;;;;;17.08;67.10;101111.44;144993;587;6002;-85
2021/04/29 03:53:06;;;;;;;16.55;10.23;;;;;;;17.07;66.85;101116.66;144993;591;6002;-85
2021/04/29 03:55:36;;;;;;;15.00;9.82;;;;;;;17.08;67.18;101121.91;144993;564;6002;-87
2021/04/29 03:58:14;;;;;;;19.60;9.75;;;;;;;17.09;66.87;101126.31;144993;594;6002;-86
2021/04/29 04:00:52;;;;;;;19.98;10.00;;;;;;;17.12;66.90;101126.34;144993;610;6002;-86
2021/04/29 04:03:22;;;;;;;16.60;9.43;;;;;;;17.23;66.87;101126.44;144993;578;6002;-85
2021/04/29 04:05:51;;;;;;;17.33;9.35;;;;;;;17.34;66.98;101123.91;144993;585;6002;-84
2021/04/29 04:08:18;;;;;;;17.23;9.90;;;;;;;17.44;66.48;101130.12;144992;614;6002;-86
2021/04/29 04:10:47;;;;;;;18.48;9.90;;;;;;;17.52;66.43;101131.94;144992;572;6002;-85
2021/04/29 04:13:19;;;;;;;16.77;10.10;;;;;;;17.62;66.23;101132.88;144992;580;6002;-84
2021/04/29 04:15:48;;;;;;;19.35;10.65;;;;;;;17.71;66.43;101126.81;144991;653;6002;-86
2021/04/29 04:18:18;;;;;;;20.60;10.13;;;;;;;17.72;66.59;101133.81;144992;670;6002;-82
2021/04/29 04:20:45;;;;;;;17.98;10.43;;;;;;;17.72;66.30;101139.97;144993;564;6002;-85
2021/04/29 04:23:22;;;;;;;17.25;10.00;;;;;;;17.77;66.08;101133.00;144993;692;6002;-86
2021/04/29 04:26:00;;;;;;;15.35;10.52;;;;;;;17.83;66.64;101136.50;144993;602;6002;-82
2021/04/29 04:28:43;;;;;;;18.90;10.38;;;;;;;17.89;66.61;101145.34;144993;576;6002;-84
2021/04/29 04:31:27;;;;;;;17.83;10.38;;;;;;;18.02;65.85;101140.16;144993;620;6002;-84
2021/04/29 04:33:54;;;;;;;18.12;10.68;;;;;;;18.12;65.92;101144.63;144993;581;6002;-85
2021/04/29 04:36:29;;;;;;;16.80;10.48;;;;;;;18.21;65.45;101146.41;144993;585;6002;-84
2021/04/29 04:38:58;;;;;;;15.68;10.70;;;;;;;18.30;64.72;101147.31;144993;578;6002;-85
2021/04/29 04:41:26;;;;;;;19.92;10.90;;;;;;;18.33;64.64;101150.84;144993;648;6002;-84
2021/04/29 04:43:52;;;;;;;18.95;11.20;;;;;;;18.35;64.97;101159.63;144993;592;6002;-86
2021/04/29 04:46:20;;;;;;;19.37;11.80;;;;;;;18.39;64.53;101153.47;144993;578;6002;-84
2021/04/29 04:48:48;;;;;;;17.62;11.55;;;;;;;18.38;65.12;101162.25;144993;566;6002;-84
2021/04/29 04:51:16;;;;;;;17.33;10.73;;;;;;;18.41;64.83;101159.66;144993;584;6002;-84
2021/04/29 04:53:42;;;;;;;19.27;12.73;;;;;;;18.39;64.30;101151.75;144993;604;6002;-85
2021/04/29 04:56:09;;;;;;;20.67;12.95;;;;;;;18.35;64.91;101159.63;144993;666;6002;-84
2021/04/29 04:58:36;;;;;;;19.23;12.43;;;;;;;18.34;64.58;101156.13;144993;570;6002;-84
2021/04/29 05:01:04;;;;;;;20.40;11.65;;;;;;;18.30;64.94;101157.84;144993;565;6002;-84
2021/04/29 05:03:33;;;;;;;20.27;12.27;;;;;;;18.30;64.75;101156.97;144993;606;6002;-83
2021/04/29 05:05:59;;;;;;;18.42;12.15;;;;;;;18.32;64.57;101157.84;144993;672;6002;-84
2021/04/29 05:08:26;;;;;;;19.48;12.18;;;;;;;18.34;64.27;101150.88;144993;565;6003;-84
2021/04/29 05:10:52;;;;;;;22.90;12.95;;;;;;;18.35;64.47;101157.84;144993;583;6002;-85
2021/04/29 05:13:22;;;;;;;24.12;13.55;;;;;;;18.38;64.88;101154.38;144993;617;6002;-85
2021/04/29 05:15:48;;;;;;;24.08;13.98;;;;;;;18.36;64.65;101151.75;144994;577;5002;-84
2021/04/29 05:18:15;;;;;;;26.25;14.57;;;;;;;18.36;64.74;101150.84;144994;585;5002;-84
2021/04/29 05:20:42;;;;;;;23.40;14.63;;;;;;;18.36;64.84;101154.38;144994;600;5002;-84
2021/04/29 05:23:08;;;;;;;22.92;14.77;;;;;;;18.35;65.97;101154.38;144994;592;5002;-84
2021/04/29 05:25:35;;;;;;;22.80;13.88;;;;;;;18.15;66.92;101168.28;144994;589;5002;-84
2021/04/29 05:28:03;;;;;;;29.10;15.05;;;;;;;18.16;65.75;101161.28;144994;658;5002;-83
2021/04/29 05:30:32;;;;;;;24.87;15.02;;;;;;;18.19;66.13;101164.78;144994;579;5002;-85
2021/04/29 05:33:04;;;;;;;27.62;15.75;;;;;;;18.12;66.23;101163.88;144994;569;5002;-86
2021/04/29 05:35:32;;;;;;;25.70;15.90;;;;;;;18.10;66.54;101157.75;144994;595;5002;-87
2021/04/29 05:38:05;;;;;;;27.33;15.25;;;;;;;17.94;68.59;101159.41;144994;576;5002;-90
2021/04/29 05:40:35;;;;;;;27.37;16.10;;;;;;;17.92;69.14;101163.75;144994;581;5002;-87
2021/04/29 05:43:05;;;;;;;25.73;15.15;;;;;;;17.83;70.88;101168.94;144994;657;5002;-87
2021/04/29 05:45:45;;;;;;;24.75;16.58;;;;;;;17.99;69.38;101166.41;144994;698;5003;-86
2021/04/29 05:48:16;;;;;;;28.23;17.37;;;;;;;18.12;69.86;101174.38;144994;727;5002;-85
2021/04/29 05:50:54;;;;;;;24.90;16.05;;;;;;;18.25;69.07;101169.22;144994;629;5002;-87
2021/04/29 05:53:32;;;;;;;24.35;15.60;;;;;;;18.33;68.50;101171.88;144994;629;5002;-85
2021/04/29 05:55:59;;;;;;;49.25;19.52;;;;;;;18.29;69.53;101171.88;144994;606;5002;-87
2021/04/29 05:58:26;;;;;;;35.10;16.65;;;;;;;18.31;69.90;101170.13;144994;585;5002;-84
2021/04/29 06:00:52;;;;;;;30.67;18.05;;;;;;;18.41;69.49;101165.78;144994;675;5002;-86
2021/04/29 06:03:22;;;;;;;28.17;16.42;;;;;;;18.34;68.69;101166.63;144994;593;5002;-85
2021/04/29 06:05:51;;;;;;;33.13;16.75;;;;;;;18.33;69.80;101169.25;144994;569;5002;-82
2021/04/29 06:08:18;;;;;;;34.10;17.35;;;;;;;18.16;70.86;101180.53;144994;582;5002;-85
2021/04/29 06:10:56;;;;;;;30.50;17.45;;;;;;;18.21;70.03;101177.94;144994;597;5002;-85
2021/04/29 06:13:34;;;;;;;26.90;16.85;;;;;;;18.37;69.56;101174.50;144993;569;5002;-84
2021/04/29 06:16:01;;;;;;;25.98;17.40;;;;;;;18.63;68.50;101172.00;144994;608;5002;-86
2021/04/29 06:18:28;;;;;;;32.97;16.98;;;;;;;18.75;68.67;101171.16;144994;619;5002;-86
2021/04/29 06:20:55;;;;;;;24.98;15.65;;;;;;;18.66;69.14;101176.41;144994;571;5002;-85
2021/04/29 06:23:23;;;;;;;25.70;16.35;;;;;;;18.45;69.72;101172.81;144994;578;5002;-85
2021/04/29 06:25:51;;;;;;;27.62;16.20;;;;;;;18.61;69.41;101165.87;144994;602;5002;-85
2021/04/29 06:28:17;;;;;;;29.30;16.95;;;;;;;18.73;68.63;101170.28;144994;569;5002;-86
2021/04/29 06:30:44;;;;;;;23.38;13.77;;;;;;;18.40;70.48;101174.53;144994;566;5002;-88
2021/04/29 06:33:11;;;;;;;20.83;14.07;;;;;;;18.01;72.31;101170.81;144994;591;5002;-87
2021/04/29 06:35:38;;;;;;;23.08;13.57;;;;;;;17.98;71.63;101170.81;144994;571;5002;-89
2021/04/29 06:38:04;;;;;;;24.67;15.32;;;;;;;18.01;72.00;101180.44;144994;583;5002;-87
2021/04/29 06:40:31;;;;;;;26.48;13.77;;;;;;;17.85;73.39;101192.53;144994;576;5002;-81
2021/04/29 06:42:57;;;;;;;26.75;14.10;;;;;;;17.90;72.90;101198.75;144994;577;5002;-81
2021/04/29 06:45:24;;;;;;;22.52;13.18;;;;;;;18.06;71.83;101190.09;144994;695;5002;-83
2021/04/29 06:47:54;;;;;;;25.33;14.00;;;;;;;18.27;70.55;101185.84;144994;613;5002;-81
2021/04/29 06:50:22;;;;;;;22.27;11.90;;;;;;;18.44;70.20;101191.22;144994;635;5002;-83
2021/04/29 06:53:01;;;;;;;18.48;11.73;;;;;;;18.74;70.13;101189.56;144994;656;5002;-80
2021/04/29 06:55:36;;;;;;;22.70;12.02;;;;;;;19.01;69.33;101191.44;144994;573;5002;-84
2021/04/29 06:58:03;;;;;;;20.12;13.88;;;;;;;19.24;68.71;101186.22;144994;596;5002;-81
2021/04/29 07:00:32;;;;;;;21.48;14.27;;;;;;;19.32;68.48;101186.22;144994;625;5002;-82
2021/04/29 07:02:59;;;;;;;23.73;12.90;;;;;;;19.38;67.85;101183.59;144994;600;5002;-81
2021/04/29 07:05:27;;;;;;;18.35;11.45;;;;;;;19.37;67.73;101181.84;144994;564;5002;-84
2021/04/29 07:07:54;;;;;;;21.75;12.68;;;;;;;19.10;68.36;101187.94;144994;632;5002;-82
2021/04/29 07:10:22;;;;;;;24.27;12.48;;;;;;;18.95;68.57;101194.94;144994;566;5002;-81
2021/04/29 07:12:48;;;;;;;18.83;11.65;;;;;;;18.95;68.81;101196.69;144994;570;5002;-81
2021/04/29 07:15:16;;;;;;;18.10;12.00;;;;;;;18.95;69.19;101194.06;144994;645;5002;-81
2021/04/29 07:17:43;;;;;;;16.90;11.18;;;;;;;18.91;69.39;101190.53;144994;569;5002;-82
2021/04/29 07:20:11;;;;;;;17.52;10.85;;;;;;;19.02;69.15;101203.72;144993;679;5002;-81
2021/04/29 07:22:39;;;;;;;18.62;10.25;;;;;;;19.28;68.42;101205.50;144994;641;5002;-87
2021/04/29 07:25:07;;;;;;;17.37;9.77;;;;;;;19.14;68.60;101205.50;144994;581;5002;-86
2021/04/29 07:27:36;;;;;;;19.70;11.05;;;;;;;19.30;68.16;101204.66;144994;593;5002;-88
2021/04/29 07:30:42;;;;;;;;;;;;;;;;;;;;;
2021/04/29 07:33:12;;;;;;;16.87;10.90;;;;;;;19.41;68.42;101209.94;144994;658;5004;-88
2021/04/29 07:35:39;;;;;;;17.80;11.35;;;;;;;19.38;67.95;101218.69;144994;596;5004;-90
2021/04/29 07:38:08;;;;;;;16.90;11.57;;;;;;;19.46;68.08;101225.75;144994;583;5004;-90
2021/04/29 07:40:35;;;;;;;21.30;12.55;;;;;;;19.35;68.22;101231.00;144994;607;5004;-90
2021/04/29 07:43:01;;;;;;;26.08;13.15;;;;;;;19.46;67.74;101223.97;144994;581;5004;-88
2021/04/29 07:45:29;;;;;;;24.17;14.93;;;;;;;19.31;68.17;101216.94;144993;598;5004;-87
2021/04/29 07:48:05;;;;;;;18.73;13.75;;;;;;;18.83;70.52;101216.78;144994;618;5002;-83
2021/04/29 07:50:51;;;;;;;27.30;15.15;;;;;;;18.95;70.10;101221.25;144994;602;5002;-86
2021/04/29 07:56:04;;;;;;;26.33;15.40;;;;;;;19.07;69.36;101220.37;144994;653;5002;-85
2021/04/29 07:58:33;;;;;;;24.85;14.77;;;;;;;18.97;69.90;101219.47;144994;632;5002;-86
2021/04/29 08:01:00;;;;;;;24.87;14.10;;;;;;;18.61;71.02;101210.56;144994;585;5002;-88
2021/04/29 08:03:26;;;;;;;23.65;15.30;;;;;;;18.58;70.53;101221.06;144994;589;5002;-88
2021/04/29 08:05:54;;;;;;;23.55;15.00;;;;;;;18.46;71.15;101232.38;144994;604;5002;-90
2021/04/29 08:08:27;;;;;;;25.40;16.80;;;;;;;18.66;70.19;101229.00;144994;578;5002;-89
2021/04/29 08:11:16;;;;;;;;;;;;;;;;;;;;;
2021/04/29 08:13:54;;;;;;;23.80;15.50;;;;;;;18.33;72.87;101254.22;144994;583;5004;-86
2021/04/29 08:16:20;;;;;;;26.23;17.30;;;;;;;18.53;71.48;101261.34;144994;563;5004;-88
2021/04/29 08:18:49;;;;;;;26.45;16.48;;;;;;;18.54;71.82;101252.59;144994;700;5004;-88
2021/04/29 08:21:16;;;;;;;29.52;17.92;;;;;;;18.82;70.58;101254.47;144994;575;5004;-87
2021/04/29 08:23:44;;;;;;;25.42;16.05;;;;;;;18.77;70.47;101272.00;144994;605;5004;-93
2021/04/29 08:26:13;;;;;;;22.33;11.98;;;;;;;19.00;69.63;101269.47;144994;612;5004;-90
2021/04/29 08:28:40;;;;;;;17.70;11.75;;;;;;;19.14;69.04;101269.53;144994;625;5004;-85
2021/04/29 08:31:07;;;;;;;22.20;12.68;;;;;;;19.22;69.22;101272.19;144994;573;5004;-84
2021/04/29 08:33:41;;;;;;;23.10;14.50;;;;;;;19.51;68.09;101269.62;144994;593;5004;-88
2021/04/29 08:36:08;;;;;;;23.80;13.13;;;;;;;19.51;67.40;101271.37;144994;579;5004;-84
2021/04/29 08:38:35;;;;;;;20.48;13.15;;;;;;;19.42;68.01;101268.72;144994;600;5004;-91
2021/04/29 08:41:03;;;;;;;19.02;12.27;;;;;;;19.55;67.87;101254.69;144994;600;5004;-86
2021/04/29 08:43:30;;;;;;;22.42;12.32;;;;;;;19.32;67.78;101258.16;144994;593;5005;-82
2021/04/29 08:45:56;;;;;;;18.23;10.57;;;;;;;19.15;67.53;101265.16;144994;570;5004;-89
2021/04/29 08:48:24;;;;;;;17.10;10.80;;;;;;;19.40;67.83;101255.56;144994;587;5004;-82
2021/04/29 08:50:52;;;;;;;15.18;9.30;;;;;;;19.47;66.82;101256.44;144994;599;5004;-85
2021/04/29 08:53:24;;;;;;;17.20;7.93;;;;;;;19.38;66.36;101250.28;144994;564;5004;-84
2021/04/29 08:55:51;;;;;;;14.07;6.78;;;;;;;19.52;65.64;101250.31;144994;615;5004;-84
2021/04/29 08:58:19;;;;;;;17.23;9.88;;;;;;;19.65;64.86;101242.44;144994;584;5004;-85
2021/04/29 09:00:57;;;;;;;20.00;11.20;;;;;;;19.39;66.18;101233.63;144994;567;5004;-86
2021/04/29 09:03:31;;;;;;;19.05;11.18;;;;;;;19.50;65.98;101238.00;144994;607;5004;-85
2021/04/29 09:06:03;;;;;;;15.70;10.57;;;;;;;19.69;65.40;101246.81;144994;624;5004;-88
2021/04/29 09:08:35;;;;;;;15.50;9.23;;;;;;;19.77;64.58;101250.34;144994;569;5004;-82
2021/04/29 09:11:13;;;;;;;18.92;10.60;;;;;;;19.92;65.44;101268.81;144994;561;5004;-83
2021/04/29 09:13:42;;;;;;;16.05;8.50;;;;;;;20.08;65.09;101263.53;144994;606;5004;-82
2021/04/29 09:16:11;;;;;;;13.62;8.60;;;;;;;19.94;64.08;101251.22;144994;585;5004;-84
2021/04/29 09:18:41;;;;;;;14.25;8.18;;;;;;;19.96;65.08;101255.62;144994;590;5004;-85
2021/04/29 09:21:13;;;;;;;13.38;8.32;;;;;;;20.11;64.87;101259.12;144994;619;5004;-84
2021/04/29 09:23:55;;;;;;;16.92;9.35;;;;;;;20.22;64.79;101259.12;144994;612;5004;-82
2021/04/29 09:26:23;;;;;;;14.75;8.07;;;;;;;20.30;64.18;101259.97;144994;585;5004;-86
2021/04/29 09:28:53;;;;;;;17.87;8.13;;;;;;;20.28;61.93;101253.84;144994;572;5004;-84
2021/04/29 09:31:24;;;;;;;11.80;6.50;;;;;;;20.21;62.76;101246.81;144994;567;5004;-85
2021/04/29 09:34:44;;;;;;;;;;;;;;;;;;;;;
2021/04/29 09:37:50;;;;;;;14.43;6.87;;;;;;;20.69;63.21;101240.56;144994;567;5004;-90
2021/04/29 09:40:29;;;;;;;17.73;7.97;;;;;;;20.54;58.66;101237.06;144994;597;5002;-81
2021/04/29 09:42:58;;;;;;;13.62;6.60;;;;;;;20.75;61.74;101232.63;144994;619;5002;-76
2021/04/29 09:45:31;;;;;;;13.05;6.50;;;;;;;20.99;62.15;101224.59;144994;588;5002;-80
2021/04/29 09:48:21;;;;;;;11.15;5.53;;;;;;;20.74;57.35;101225.59;144994;573;4566;-76
2021/04/29 09:50:50;;;;;;;11.48;6.15;;;;;;;20.96;60.64;101240.44;144994;639;4572;-78
2021/04/29 09:53:17;;;;;;;10.48;5.80;;;;;;;21.12;60.62;101228.03;144994;608;4574;-79
2021/04/29 09:55:47;;;;;;;14.95;6.35;;;;;;;21.07;60.13;101224.56;144993;561;6000;-79
2021/04/29 09:58:16;;;;;;;11.20;6.50;;;;;;;21.21;60.18;101227.13;144992;582;6002;-80
2021/04/29 10:00:45;;;;;;;10.82;6.43;;;;;;;21.31;60.52;101212.09;144992;613;6002;-78
2021/04/29 10:03:12;;;;;;;9.68;6.03;;;;;;;21.41;60.90;101213.75;144992;595;6002;-80
2021/04/29 10:05:40;;;;;;;10.88;6.05;;;;;;;21.50;60.63;101208.44;144992;565;6003;-79
2021/04/29 10:08:19;;;;;;;16.50;6.10;;;;;;;21.52;60.10;101204.06;144992;593;6002;-80
2021/04/29 10:10:47;;;;;;;14.07;6.50;;;;;;;21.51;59.64;101199.66;144992;594;6002;-79
2021/04/29 10:13:17;;;;;;;11.27;5.82;;;;;;;21.44;59.97;101197.03;144992;594;6003;-79
2021/04/29 10:15:45;;;;;;;8.98;5.50;;;;;;;21.31;58.73;101202.41;144992;609;6002;-80
2021/04/29 10:18:14;;;;;;;14.48;7.00;;;;;;;21.18;58.00;101198.97;144992;598;6002;-80
2021/04/29 10:20:48;;;;;;;14.27;6.95;;;;;;;21.23;57.92;101195.44;144992;604;6002;-79
2021/04/29 10:23:18;;;;;;;12.37;6.35;;;;;;;21.24;57.71;101203.34;144992;604;6002;-79
2021/04/29 10:26:00;;;;;;;13.85;6.72;;;;;;;21.32;59.23;101196.25;144992;649;6002;-80
2021/04/29 10:28:55;;;;;;;11.30;6.05;;;;;;;21.26;57.08;101193.63;144992;602;6002;-81
2021/04/29 10:31:34;;;;;;;13.50;6.65;;;;;;;21.49;59.69;101193.50;144992;569;6002;-80
2021/04/29 10:34:24;;;;;;;16.75;7.53;;;;;;;21.51;59.37;101193.50;144992;576;6002;-81
2021/04/29 10:36:52;;;;;;;15.07;6.85;;;;;;;21.53;58.11;101186.44;144992;603;6002;-84
2021/04/29 10:39:24;;;;;;;17.95;6.87;;;;;;;21.63;57.51;101189.87;144992;569;6002;-84
2021/04/29 10:42:13;;;;;;;11.23;6.30;;;;;;;21.59;57.04;101193.41;144992;615;6002;-80
2021/04/29 10:44:45;;;;;;;12.80;5.90;;;;;;;21.67;59.08;101186.31;144992;603;6004;-80
2021/04/29 10:47:25;;;;;;;11.50;6.53;;;;;;;21.73;58.28;101196.84;144992;630;6004;-81
2021/04/29 10:49:52;;;;;;;12.13;5.80;;;;;;;21.82;58.34;101198.50;144992;647;6004;-83
2021/04/29 10:52:20;;;;;;;17.98;6.43;;;;;;;21.74;58.31;101186.22;144992;584;6004;-80
2021/04/29 10:54:53;;;;;;;10.55;5.75;;;;;;;21.80;55.67;101181.81;144992;595;6004;-79
2021/04/29 10:57:21;;;;;;;16.95;6.32;;;;;;;21.88;56.29;101178.19;144992;618;6004;-82
2021/04/29 10:59:53;;;;;;;13.23;5.70;;;;;;;21.82;57.42;101178.22;144992;592;6004;-81
2021/04/29 11:02:56;;;;;;;13.60;6.40;;;;;;;21.77;57.16;101168.63;144992;612;6004;-79
2021/04/29 11:05:24;;;;;;;9.25;5.78;;;;;;;21.50;56.58;101160.03;144992;575;6002;-78
2021/04/29 11:07:50;;;;;;;11.45;5.75;;;;;;;21.66;57.02;101169.56;144992;647;6002;-81
2021/04/29 11:10:18;;;;;;;10.63;5.78;;;;;;;21.48;57.01;101167.09;144992;563;6002;-78
2021/04/29 11:12:54;;;;;;;14.68;6.03;;;;;;;21.25;57.74;101164.59;144992;617;6003;-79
2021/04/29 11:15:37;;;;;;;14.48;5.72;;;;;;;21.24;58.13;101157.56;144992;629;6002;-80
2021/04/29 11:18:14;;;;;;;11.75;6.53;;;;;;;21.29;57.89;101161.06;144992;574;6002;-80
2021/04/29 11:20:45;;;;;;;9.90;6.28;;;;;;;21.20;58.51;101162.00;144992;581;6003;-82
2021/04/29 11:23:13;;;;;;;11.48;6.25;;;;;;;21.03;59.54;101167.41;144992;653;6002;-80
2021/04/29 11:25:40;;;;;;;14.55;6.95;;;;;;;20.91;60.97;101176.25;144992;563;6002;-80
2021/04/29 11:28:08;;;;;;;14.85;6.78;;;;;;;20.95;60.84;101185.03;144991;570;6002;-79
2021/04/29 11:30:37;;;;;;;10.60;6.10;;;;;;;21.06;60.37;101180.59;144992;583;6002;-81
2021/04/29 11:33:05;;;;;;;12.48;6.37;;;;;;;21.15;60.05;101193.69;144991;649;6002;-78
2021/04/29 11:35:34;;;;;;;15.82;6.65;;;;;;;21.14;60.06;101177.88;144992;604;6002;-79
2021/04/29 11:38:02;;;;;;;13.80;6.43;;;;;;;21.09;60.17;101169.97;144992;566;6002;-80
2021/04/29 11:40:30;;;;;;;11.45;6.40;;;;;;;21.04;60.28;101157.72;144992;579;6002;-81
2021/04/29 11:42:58;;;;;;;14.07;6.65;;;;;;;21.08;60.78;101151.50;144992;573;6002;-80
2021/04/29 11:45:41;;;;;;;10.98;6.85;;;;;;;21.01;61.31;101153.31;144992;579;6002;-86
2021/04/29 11:48:24;;;;;;;13.23;7.22;;;;;;;21.01;60.68;101154.22;144992;627;6002;-79
2021/04/29 11:50:54;;;;;;;11.98;7.70;;;;;;;20.99;61.11;101161.25;144992;585;6002;-79
2021/04/29 11:53:30;;;;;;;11.10;7.00;;;;;;;21.26;60.67;101167.22;144992;649;6002;-80
2021/04/29 11:56:04;;;;;;;14.40;6.95;;;;;;;21.23;60.91;101161.97;144992;634;6002;-80